createdAt,value
2023-02-24T00:00:31.995Z,50.93
2023-02-24T00:02:34.314Z,58.67
2023-02-24T00:04:39.616Z,49.20
2023-02-24T00:06:43.799Z,58.03
2023-02-24T00:08:45.994Z,51.53
2023-02-24T00:10:48.406Z,59.57
2023-02-24T00:12:50.614Z,58.53
2023-02-24T00:14:52.870Z,57.10
2023-02-24T00:16:55.287Z,58.30
2023-02-24T00:18:57.548Z,52.33
2023-02-24T00:21:13.612Z,55.83
2023-02-24T00:23:18.392Z,66.47
2023-02-24T00:25:20.581Z,60.77
2023-02-24T00:27:22.729Z,76.13
2023-02-24T00:29:25.574Z,63.17
2023-02-24T00:31:31.320Z,69.03
2023-02-24T00:33:34.458Z,69.30
2023-02-24T00:35:36.722Z,69.70
2023-02-24T00:37:38.913Z,68.93
2023-02-24T00:39:42.167Z,65.70
2023-02-24T00:41:45.459Z,74.57
2023-02-24T00:43:47.545Z,79.43
2023-02-24T00:45:51.604Z,66.73
2023-02-24T00:47:57.559Z,67.60
2023-02-24T00:49:59.936Z,87.20
2023-02-24T00:52:06.572Z,70.43
2023-02-24T00:54:15.049Z,73.47
2023-02-24T00:56:18.066Z,86.27
2023-02-24T00:58:20.558Z,76.83
2023-02-24T01:00:23.492Z,69.37
2023-02-24T01:02:25.922Z,57.80
2023-02-24T01:04:29.405Z,59.43
2023-02-24T01:06:32.038Z,63.93
2023-02-24T01:08:36.641Z,54.70
2023-02-24T01:10:38.770Z,47.83
2023-02-24T01:12:50.033Z,46.23
2023-02-24T01:14:52.841Z,43.70
2023-02-24T01:16:55.586Z,45.20
2023-02-24T01:18:57.712Z,42.97
2023-02-24T01:20:59.917Z,37.10
2023-02-24T01:23:03.483Z,25.80
2023-02-24T01:25:08.029Z,23.40
2023-02-24T01:27:12.442Z,28.90
2023-02-24T01:29:15.108Z,16.57
2023-02-24T01:31:18.600Z,9.83
2023-02-24T01:33:21.845Z,14.03
2023-02-24T01:35:25.779Z,16.07
2023-02-24T01:37:28.839Z,13.57
2023-02-24T01:39:30.960Z,10.73
2023-02-24T01:41:33.211Z,15.63
2023-02-24T01:43:58.760Z,17.60
2023-02-24T01:46:02.314Z,16.77
2023-02-24T01:48:07.288Z,21.97
2023-02-24T01:50:10.399Z,13.03
2023-02-24T01:52:25.509Z,14.63
2023-02-24T01:54:32.439Z,17.60
2023-02-24T01:56:34.746Z,22.60
2023-02-24T01:58:37.310Z,20.40
2023-02-24T02:00:45.256Z,16.13
2023-02-24T02:02:52.889Z,14.50
2023-02-24T02:05:03.875Z,29.77
2023-02-24T02:07:10.006Z,15.07
2023-02-24T02:09:15.289Z,15.10
2023-02-24T02:11:20.608Z,11.77
2023-02-24T02:13:23.064Z,19.30
2023-02-24T02:15:25.315Z,11.30
2023-02-24T02:17:32.790Z,24.73
2023-02-24T02:19:59.891Z,16.23
2023-02-24T02:22:06.898Z,8.33
2023-02-24T02:24:35.365Z,12.30
2023-02-24T02:26:43.327Z,19.87
2023-02-24T02:29:09.987Z,15.80
2023-02-24T02:31:35.403Z,26.23
2023-02-24T02:34:15.548Z,18.47
2023-02-24T02:36:36.185Z,8.53
2023-02-24T02:38:57.517Z,15.10
2023-02-24T02:41:22.519Z,18.83
2023-02-24T02:43:37.395Z,13.97
2023-02-24T02:45:55.970Z,15.43
2023-02-24T02:48:26.970Z,22.07
2023-02-24T02:51:04.293Z,11.40
2023-02-24T02:53:42.231Z,17.13
2023-02-24T02:55:48.346Z,24.17
2023-02-24T02:57:53.509Z,7.97
2023-02-24T02:59:59.789Z,20.70
2023-02-24T03:02:14.753Z,18.73
2023-02-24T03:04:22.921Z,10.60
2023-02-24T03:06:30.002Z,13.20
2023-02-24T03:08:37.303Z,23.47
2023-02-24T03:10:40.411Z,10.90
2023-02-24T03:12:43.317Z,15.03
2023-02-24T03:14:51.201Z,10.07
2023-02-24T03:16:54.471Z,9.90
2023-02-24T03:19:01.025Z,15.70
2023-02-24T03:21:08.620Z,10.57
2023-02-24T03:23:19.028Z,21.73
2023-02-24T03:25:30.832Z,10.80
2023-02-24T03:27:42.366Z,17.40
2023-02-24T03:30:00.892Z,22.93
2023-02-24T03:32:13.378Z,16.57
2023-02-24T03:34:24.149Z,9.70
2023-02-24T03:36:28.059Z,15.93
2023-02-24T03:38:31.354Z,12.57
2023-02-24T03:40:36.074Z,10.90
2023-02-24T03:42:43.297Z,8.23
2023-02-24T03:44:45.962Z,12.20
2023-02-24T03:46:48.680Z,11.83
2023-02-24T03:48:55.769Z,9.77
2023-02-24T03:50:59.435Z,11.30
2023-02-24T03:53:34.029Z,14.50
2023-02-24T03:56:00.344Z,17.07
2023-02-24T03:58:08.410Z,14.50
2023-02-24T04:00:35.108Z,13.10
2023-02-24T04:02:38.750Z,22.90
2023-02-24T04:04:48.670Z,10.30
2023-02-24T04:07:15.581Z,20.10
2023-02-24T04:09:20.815Z,10.40
2023-02-24T04:11:37.500Z,16.90
2023-02-24T04:13:49.978Z,13.10
2023-02-24T04:16:02.780Z,22.50
2023-02-24T04:18:09.811Z,8.77
2023-02-24T04:20:16.574Z,9.13
2023-02-24T04:22:24.976Z,16.10
2023-02-24T04:24:30.994Z,19.47
2023-02-24T04:26:36.488Z,22.10
2023-02-24T04:28:41.073Z,13.00
2023-02-24T04:30:46.175Z,19.60
2023-02-24T04:32:49.684Z,18.83
2023-02-24T04:34:52.842Z,18.70
2023-02-24T04:36:55.406Z,12.23
2023-02-24T04:38:58.081Z,17.80
2023-02-24T04:41:01.538Z,13.57
2023-02-24T04:43:03.795Z,16.20
2023-02-24T04:45:10.086Z,11.57
2023-02-24T04:47:12.487Z,10.37
2023-02-24T04:49:14.572Z,20.07
2023-02-24T04:51:16.771Z,13.67
2023-02-24T04:53:18.892Z,11.03
2023-02-24T04:55:23.227Z,10.50
2023-02-24T04:57:25.404Z,16.90
2023-02-24T04:59:28.053Z,16.87
2023-02-24T05:01:31.356Z,14.10
2023-02-24T05:03:33.598Z,19.30
2023-02-24T05:05:35.787Z,26.63
2023-02-24T05:07:38.016Z,25.40
2023-02-24T05:09:41.123Z,29.47
2023-02-24T05:11:45.581Z,24.23
2023-02-24T05:13:47.720Z,19.20
2023-02-24T05:15:49.893Z,17.20
2023-02-24T05:17:53.300Z,10.10
2023-02-24T05:20:14.143Z,14.70
2023-02-24T05:22:17.587Z,13.90
2023-02-24T05:24:19.863Z,26.10
2023-02-24T05:26:25.610Z,13.63
2023-02-24T05:28:31.540Z,18.23
2023-02-24T05:30:33.930Z,12.37
2023-02-24T05:32:36.826Z,16.63
2023-02-24T05:34:39.172Z,37.70
2023-02-24T05:36:41.302Z,19.67
2023-02-24T05:38:44.746Z,15.37
2023-02-24T05:40:50.189Z,16.07
2023-02-24T05:42:52.338Z,21.40
2023-02-24T05:44:54.468Z,14.00
2023-02-24T05:47:00.430Z,17.67
2023-02-24T05:49:09.236Z,15.93
2023-02-24T05:51:12.627Z,18.87
2023-02-24T05:53:15.623Z,8.60
2023-02-24T05:55:17.958Z,12.50
2023-02-24T05:57:32.922Z,15.73
2023-02-24T05:59:35.294Z,12.03
2023-02-24T06:01:41.581Z,15.50
2023-02-24T06:03:48.083Z,16.60
2023-02-24T06:05:54.054Z,13.23
2023-02-24T06:08:04.345Z,12.40
2023-02-24T06:10:10.310Z,13.43
2023-02-24T06:12:14.701Z,12.13
2023-02-24T06:14:17.228Z,14.40
2023-02-24T06:16:20.024Z,22.03
2023-02-24T06:18:22.226Z,21.43
2023-02-24T06:20:26.798Z,15.60
2023-02-24T06:22:29.195Z,15.00
2023-02-24T06:24:33.524Z,10.23
2023-02-24T06:26:36.913Z,28.90
2023-02-24T06:28:43.175Z,12.00
2023-02-24T06:30:45.675Z,14.43
2023-02-24T06:32:48.632Z,22.73
2023-02-24T06:34:52.069Z,28.17
2023-02-24T06:36:54.324Z,10.50
2023-02-24T06:38:56.408Z,14.07
2023-02-24T06:41:00.244Z,20.47
2023-02-24T06:43:02.852Z,13.07
2023-02-24T06:45:07.743Z,29.80
2023-02-24T06:47:13.313Z,31.83
2023-02-24T06:49:15.505Z,21.30
2023-02-24T06:51:17.663Z,26.07
2023-02-24T06:53:19.734Z,14.20
2023-02-24T06:55:27.699Z,12.70
2023-02-24T06:57:32.841Z,13.40
2023-02-24T06:59:34.982Z,17.23
2023-02-24T07:01:45.070Z,18.13
2023-02-24T07:04:17.571Z,20.33
2023-02-24T07:06:24.162Z,20.23
2023-02-24T07:08:27.416Z,13.53
2023-02-24T07:10:29.674Z,17.17
2023-02-24T07:12:31.817Z,31.93
2023-02-24T07:14:34.016Z,19.37
2023-02-24T07:16:36.309Z,21.80
2023-02-24T07:18:41.770Z,19.83
2023-02-24T07:20:46.205Z,14.90
2023-02-24T07:22:48.361Z,16.63
2023-02-24T07:24:50.465Z,18.37
2023-02-24T07:26:57.628Z,14.63
2023-02-24T07:29:04.266Z,11.13
2023-02-24T07:31:08.621Z,23.10
2023-02-24T07:33:10.803Z,16.13
2023-02-24T07:35:14.594Z,10.07
2023-02-24T07:37:16.846Z,15.93
2023-02-24T07:39:19.809Z,24.73
2023-02-24T07:41:23.567Z,8.30
2023-02-24T07:43:27.340Z,15.23
2023-02-24T07:45:29.688Z,13.67
2023-02-24T07:47:32.803Z,20.27
2023-02-24T07:49:35.440Z,16.53
2023-02-24T07:51:37.610Z,14.37
2023-02-24T07:53:40.355Z,16.53
2023-02-24T07:55:42.401Z,13.77
2023-02-24T07:57:48.341Z,15.13
2023-02-24T07:59:50.456Z,12.43
2023-02-24T08:01:55.758Z,10.10
2023-02-24T08:04:01.427Z,9.20
2023-02-24T08:06:15.502Z,14.63
2023-02-24T08:08:21.082Z,21.63
2023-02-24T08:10:25.926Z,12.27
2023-02-24T08:12:29.713Z,12.30
2023-02-24T08:14:35.137Z,20.67
2023-02-24T08:16:40.394Z,13.50
2023-02-24T08:18:49.003Z,16.33
2023-02-24T08:20:54.062Z,16.67
2023-02-24T08:22:56.463Z,16.23
2023-02-24T08:25:06.315Z,15.50
2023-02-24T08:27:09.327Z,20.93
2023-02-24T08:29:12.399Z,16.63
2023-02-24T08:31:14.609Z,13.30
2023-02-24T08:33:21.323Z,14.67
2023-02-24T08:35:31.828Z,19.03
2023-02-24T08:37:39.734Z,13.13
2023-02-24T08:39:43.782Z,24.30
2023-02-24T08:41:45.827Z,10.60
2023-02-24T08:43:48.771Z,11.33
2023-02-24T08:46:03.906Z,13.70
2023-02-24T08:48:18.355Z,12.87
2023-02-24T08:50:21.783Z,9.03
2023-02-24T08:52:23.899Z,19.77
2023-02-24T08:54:31.938Z,21.37
2023-02-24T08:56:34.618Z,16.53
2023-02-24T08:58:41.135Z,13.10
2023-02-24T09:00:49.244Z,16.47
2023-02-24T09:02:56.170Z,10.20
2023-02-24T09:05:03.670Z,16.47
2023-02-24T09:07:12.090Z,15.10
2023-02-24T09:09:17.375Z,8.87
2023-02-24T09:11:22.841Z,27.27
2023-02-24T09:13:32.879Z,14.03
2023-02-24T09:15:41.404Z,23.27
2023-02-24T09:17:44.776Z,13.13
2023-02-24T09:19:50.750Z,18.17
2023-02-24T09:21:52.786Z,15.40
2023-02-24T09:23:56.022Z,23.27
2023-02-24T09:25:58.059Z,16.70
2023-02-24T09:28:17.077Z,13.97
2023-02-24T09:30:37.208Z,12.70
2023-02-24T09:32:39.521Z,9.87
2023-02-24T09:34:44.140Z,14.67
2023-02-24T09:37:01.429Z,11.73
2023-02-24T09:39:03.455Z,17.30
2023-02-24T09:41:29.935Z,9.20
2023-02-24T09:43:44.137Z,16.10
2023-02-24T09:45:53.795Z,15.40
2023-02-24T09:48:10.498Z,17.70
2023-02-24T09:50:46.887Z,10.00
2023-02-24T09:52:44.315Z,6.93
2023-02-24T09:55:07.771Z,13.53
2023-02-24T09:57:16.930Z,13.80
2023-02-24T09:59:34.704Z,17.30
2023-02-24T10:01:44.341Z,13.97
2023-02-24T10:04:20.085Z,11.90
2023-02-24T10:06:35.370Z,16.90
2023-02-24T10:08:41.307Z,13.60
2023-02-24T10:11:00.891Z,14.67
2023-02-24T10:13:14.086Z,13.73
2023-02-24T10:15:20.128Z,9.93
2023-02-24T10:17:25.123Z,15.27
2023-02-24T10:19:29.319Z,11.30
2023-02-24T10:21:49.531Z,11.67
2023-02-24T10:24:08.543Z,15.00
2023-02-24T10:26:51.371Z,10.47
2023-02-24T10:29:22.571Z,15.63
2023-02-24T10:31:35.709Z,8.60
2023-02-24T10:33:45.144Z,7.70
2023-02-24T10:35:47.501Z,11.13
2023-02-24T10:37:49.483Z,16.87
2023-02-24T10:40:00.274Z,13.20
2023-02-24T10:42:17.580Z,6.57
2023-02-24T10:44:21.136Z,11.53
2023-02-24T10:46:41.234Z,9.23
2023-02-24T10:48:52.772Z,11.00
2023-02-24T10:50:56.502Z,5.43
2023-02-24T10:53:04.438Z,12.50
2023-02-24T10:55:28.098Z,7.27
2023-02-24T10:57:58.154Z,8.53
2023-02-24T11:00:23.869Z,10.77
2023-02-24T11:02:32.714Z,13.03
2023-02-24T11:04:51.278Z,16.50
2023-02-24T11:07:12.140Z,5.23
2023-02-24T11:09:32.268Z,12.10
2023-02-24T11:11:54.835Z,9.07
2023-02-24T11:14:18.037Z,12.77
2023-02-24T11:16:38.853Z,13.90
2023-02-24T11:18:47.862Z,7.90
2023-02-24T11:20:56.386Z,20.80
2023-02-24T11:22:58.400Z,12.83
2023-02-24T11:25:37.217Z,12.57
2023-02-24T11:27:41.599Z,6.87
2023-02-24T11:29:58.732Z,18.13
2023-02-24T11:32:20.466Z,8.70
2023-02-24T11:34:41.342Z,8.53
2023-02-24T11:37:04.722Z,13.33
2023-02-24T11:39:22.688Z,13.47
2023-02-24T11:41:26.262Z,11.83
2023-02-24T11:43:30.148Z,8.67
2023-02-24T11:45:42.343Z,16.93
2023-02-24T11:47:54.555Z,9.83
2023-02-24T11:50:24.529Z,14.10
2023-02-24T11:52:30.827Z,15.83
2023-02-24T11:54:38.682Z,7.73
2023-02-24T11:56:44.094Z,7.00
2023-02-24T11:59:02.484Z,11.30
2023-02-24T12:01:14.412Z,9.80
2023-02-24T12:03:35.680Z,6.87
2023-02-24T12:05:44.889Z,7.73
2023-02-24T12:07:55.742Z,7.57
2023-02-24T12:10:17.660Z,14.30
2023-02-24T12:12:37.737Z,12.43
2023-02-24T12:14:51.550Z,4.80
2023-02-24T12:17:18.099Z,8.43
2023-02-24T12:19:28.520Z,19.50
2023-02-24T12:21:36.724Z,16.00
2023-02-24T12:23:41.936Z,11.13
2023-02-24T12:26:13.444Z,13.10
2023-02-24T12:28:42.253Z,9.00
2023-02-24T12:30:50.009Z,8.67
2023-02-24T12:33:15.388Z,13.20
2023-02-24T12:35:42.354Z,10.00
2023-02-24T12:38:23.651Z,13.93
2023-02-24T12:40:48.036Z,6.83
2023-02-24T12:42:56.993Z,10.43
2023-02-24T12:45:21.475Z,10.17
2023-02-24T12:47:36.282Z,7.20
2023-02-24T12:49:44.145Z,5.90
2023-02-24T12:52:04.662Z,8.77
2023-02-24T12:54:12.348Z,11.80
2023-02-24T12:56:24.314Z,6.07
2023-02-24T12:58:30.972Z,11.27
2023-02-24T13:01:00.834Z,7.80
2023-02-24T13:03:44.193Z,7.67
2023-02-24T13:06:17.432Z,14.03
2023-02-24T13:08:32.874Z,4.83
2023-02-24T13:10:45.168Z,6.93
2023-02-24T13:13:34.826Z,6.97
2023-02-24T13:15:36.795Z,9.87
2023-02-24T13:17:46.840Z,12.90
2023-02-24T13:19:49.812Z,10.63
2023-02-24T13:22:02.213Z,6.90
2023-02-24T13:24:04.466Z,10.77
2023-02-24T13:26:06.546Z,13.93
2023-02-24T13:28:25.242Z,10.27
2023-02-24T13:30:40.639Z,18.00
2023-02-24T13:32:46.238Z,6.60
2023-02-24T13:34:51.680Z,5.30
2023-02-24T13:36:53.804Z,5.90
2023-02-24T13:39:10.627Z,15.40
2023-02-24T13:41:22.128Z,11.67
2023-02-24T13:43:29.094Z,8.83
2023-02-24T13:45:39.888Z,12.57
2023-02-24T13:47:47.823Z,6.60
2023-02-24T13:49:56.025Z,10.87
2023-02-24T13:52:00.999Z,9.33
2023-02-24T13:54:30.741Z,14.03
2023-02-24T13:56:40.633Z,12.77
2023-02-24T13:59:02.079Z,8.73
2023-02-24T14:01:12.675Z,9.40
2023-02-24T14:03:24.710Z,11.13
2023-02-24T14:05:30.303Z,7.70
2023-02-24T14:07:35.052Z,13.33
2023-02-24T14:09:46.742Z,13.40
2023-02-24T14:11:52.844Z,8.53
2023-02-24T14:13:56.620Z,9.40
2023-02-24T14:15:58.950Z,8.87
2023-02-24T14:18:04.007Z,6.07
2023-02-24T14:20:20.683Z,10.83
2023-02-24T14:22:22.881Z,6.93
2023-02-24T14:24:27.578Z,6.90
2023-02-24T14:26:34.694Z,3.50
2023-02-24T14:28:39.502Z,5.97
2023-02-24T14:30:41.749Z,6.27
2023-02-24T14:32:47.723Z,4.23
2023-02-24T14:34:50.548Z,6.07
2023-02-24T14:36:58.468Z,7.17
2023-02-24T14:39:08.814Z,5.90
2023-02-24T14:41:23.034Z,5.73
2023-02-24T14:43:25.198Z,3.83
2023-02-24T14:45:28.699Z,6.67
2023-02-24T14:47:33.438Z,6.67
2023-02-24T14:49:39.725Z,4.70
2023-02-24T14:51:41.858Z,9.10
2023-02-24T14:53:51.244Z,6.03
2023-02-24T14:55:56.031Z,6.93
2023-02-24T14:58:04.134Z,4.70
2023-02-24T15:00:17.504Z,5.43
2023-02-24T15:02:24.417Z,7.07
2023-02-24T15:04:33.666Z,6.40
2023-02-24T15:06:40.999Z,4.10
2023-02-24T15:08:46.945Z,6.60
2023-02-24T15:10:48.962Z,4.77
2023-02-24T15:13:18.699Z,4.27
2023-02-24T15:15:24.288Z,6.87
2023-02-24T15:17:26.677Z,4.83
2023-02-24T15:19:32.772Z,9.53
2023-02-24T15:21:40.446Z,6.80
2023-02-24T15:23:44.487Z,4.30
2023-02-24T15:25:46.927Z,4.70
2023-02-24T15:27:50.392Z,4.83
2023-02-24T15:30:19.934Z,4.97
2023-02-24T15:32:28.024Z,5.30
2023-02-24T15:34:33.024Z,5.57
2023-02-24T15:36:36.304Z,8.20
2023-02-24T15:38:41.240Z,5.20
2023-02-24T15:40:54.135Z,6.07
2023-02-24T15:42:58.401Z,7.73
2023-02-24T15:45:06.543Z,4.20
2023-02-24T15:47:32.654Z,4.33
2023-02-24T15:49:34.796Z,4.90
2023-02-24T15:51:39.987Z,5.83
2023-02-24T15:53:41.970Z,6.40
2023-02-24T15:55:44.668Z,5.00
2023-02-24T15:57:47.896Z,5.73
2023-02-24T15:59:49.902Z,5.33
2023-02-24T16:01:52.406Z,5.83
2023-02-24T16:03:54.453Z,9.03
2023-02-24T16:05:56.519Z,8.27
2023-02-24T16:07:58.481Z,6.80
2023-02-24T16:10:01.435Z,5.67
2023-02-24T16:12:25.923Z,7.00
2023-02-24T16:14:27.929Z,4.90
2023-02-24T16:16:30.100Z,5.60
2023-02-24T16:18:32.693Z,6.70
2023-02-24T16:20:39.770Z,6.43
2023-02-24T16:22:41.911Z,7.50
2023-02-24T16:24:43.945Z,8.73
2023-02-24T16:26:46.131Z,6.80
2023-02-24T16:28:53.893Z,5.97
2023-02-24T16:30:56.241Z,6.10
2023-02-24T16:32:59.623Z,6.27
2023-02-24T16:35:01.719Z,6.33
2023-02-24T16:37:03.741Z,6.53
2023-02-24T16:39:05.703Z,6.00
2023-02-24T16:41:07.743Z,6.10
2023-02-24T16:43:10.372Z,5.73
2023-02-24T16:45:12.373Z,6.00
2023-02-24T16:47:17.880Z,6.50
2023-02-24T16:49:20.817Z,8.33
2023-02-24T16:51:22.910Z,7.00
2023-02-24T16:53:24.966Z,6.50
2023-02-24T16:55:27.105Z,7.33
2023-02-24T16:57:29.131Z,7.30
2023-02-24T16:59:31.159Z,6.93
2023-02-24T17:01:33.863Z,6.27
2023-02-24T17:03:45.809Z,7.83
2023-02-24T17:05:48.004Z,6.90
2023-02-24T17:07:51.921Z,7.70
2023-02-24T17:09:53.917Z,6.20
2023-02-24T17:11:55.917Z,6.00
2023-02-24T17:13:58.043Z,8.87
2023-02-24T17:16:00.273Z,6.50
2023-02-24T17:18:02.512Z,6.90
2023-02-24T17:20:05.056Z,5.93
2023-02-24T17:22:07.263Z,5.93
2023-02-24T17:24:17.681Z,6.00
2023-02-24T17:26:20.229Z,4.87
2023-02-24T17:28:22.973Z,5.17
2023-02-24T17:30:31.085Z,5.80
2023-02-24T17:32:33.575Z,5.10
2023-02-24T17:34:35.878Z,7.07
2023-02-24T17:36:38.057Z,5.07
2023-02-24T17:38:40.274Z,4.77
2023-02-24T17:40:43.404Z,5.93
2023-02-24T17:42:45.603Z,6.20
2023-02-24T17:44:47.729Z,4.90
2023-02-24T17:46:52.176Z,6.80
2023-02-24T17:48:54.524Z,7.37
2023-02-24T17:50:56.658Z,6.57
2023-02-24T17:52:58.770Z,10.30
2023-02-24T17:55:01.053Z,6.73
2023-02-24T17:57:03.254Z,6.57
2023-02-24T17:59:05.403Z,6.70
2023-02-24T18:01:07.838Z,8.47
2023-02-24T18:03:10.210Z,8.20
2023-02-24T18:05:12.427Z,7.10
2023-02-24T18:07:14.561Z,6.80
2023-02-24T18:09:16.840Z,8.30
2023-02-24T18:11:20.123Z,9.30
2023-02-24T18:13:22.266Z,8.80
2023-02-24T18:15:24.423Z,8.90
2023-02-24T18:17:26.605Z,10.17
2023-02-24T18:19:30.472Z,9.20
2023-02-24T18:21:32.654Z,10.23
2023-02-24T18:23:36.269Z,9.27
2023-02-24T18:25:38.507Z,8.63
2023-02-24T18:27:40.697Z,9.53
2023-02-24T18:29:43.003Z,8.83
2023-02-24T18:31:45.584Z,9.20
2023-02-24T18:33:48.457Z,11.90
2023-02-24T18:35:58.482Z,9.27
2023-02-24T18:38:00.802Z,9.17
2023-02-24T18:40:03.364Z,13.20
2023-02-24T18:42:05.640Z,7.37
2023-02-24T18:44:08.139Z,9.30
2023-02-24T18:46:14.676Z,8.40
2023-02-24T18:48:16.879Z,9.67
2023-02-24T18:50:20.641Z,12.73
2023-02-24T18:52:22.869Z,11.60
2023-02-24T18:54:25.005Z,12.17
2023-02-24T18:56:28.419Z,19.07
2023-02-24T18:58:31.082Z,12.10
2023-02-24T19:00:33.176Z,11.27
2023-02-24T19:02:35.317Z,12.90
2023-02-24T19:04:37.414Z,10.93
2023-02-24T19:06:41.607Z,11.87
2023-02-24T19:08:43.840Z,12.00
2023-02-24T19:10:46.004Z,11.67
2023-02-24T19:12:50.635Z,11.40
2023-02-24T19:14:53.077Z,11.40
2023-02-24T19:16:55.271Z,12.77
2023-02-24T19:18:58.557Z,12.30
2023-02-24T19:21:00.861Z,13.03
2023-02-24T19:23:03.063Z,13.00
2023-02-24T19:25:05.603Z,17.80
2023-02-24T19:27:08.699Z,16.33
2023-02-24T19:29:11.193Z,14.20
2023-02-24T19:31:20.353Z,14.60
2023-02-24T19:33:22.987Z,13.60
2023-02-24T19:35:26.241Z,20.87
2023-02-24T19:37:28.396Z,17.00
2023-02-24T19:39:32.319Z,15.80
2023-02-24T19:41:36.939Z,16.17
2023-02-24T19:43:42.092Z,16.33
2023-02-24T19:45:44.359Z,18.30
2023-02-24T19:47:47.029Z,16.73
2023-02-24T19:49:49.206Z,19.53
2023-02-24T19:51:57.984Z,15.77
2023-02-24T19:54:03.256Z,18.57
2023-02-24T19:56:06.488Z,17.37
2023-02-24T19:58:08.650Z,15.47
2023-02-24T20:00:11.612Z,18.03
2023-02-24T20:02:16.610Z,19.93
2023-02-24T20:04:19.035Z,19.50
2023-02-24T20:06:25.730Z,18.77
2023-02-24T20:08:27.976Z,21.00
2023-02-24T20:10:30.176Z,19.60
2023-02-24T20:12:32.405Z,17.93
2023-02-24T20:14:34.517Z,22.03
2023-02-24T20:16:38.111Z,16.10
2023-02-24T20:18:42.004Z,20.87
2023-02-24T20:20:44.683Z,20.30
2023-02-24T20:22:46.861Z,21.50
2023-02-24T20:24:48.999Z,18.90
2023-02-24T20:26:51.357Z,18.70
2023-02-24T20:28:53.688Z,17.37
2023-02-24T20:30:57.270Z,19.47
2023-02-24T20:32:59.744Z,22.13
2023-02-24T20:35:02.005Z,20.50
2023-02-24T20:37:06.505Z,22.10
2023-02-24T20:39:08.654Z,22.80
2023-02-24T20:41:19.470Z,23.37
2023-02-24T20:43:21.695Z,25.53
2023-02-24T20:45:24.036Z,15.23
2023-02-24T20:47:26.133Z,19.67
2023-02-24T20:49:28.433Z,18.47
2023-02-24T20:51:32.466Z,16.80
2023-02-24T20:53:47.843Z,14.97
2023-02-24T20:56:07.337Z,16.40
2023-02-24T20:58:09.512Z,18.67
2023-02-24T21:00:12.309Z,14.67
2023-02-24T21:02:14.527Z,15.60
2023-02-24T21:04:19.176Z,17.70
2023-02-24T21:06:21.492Z,14.53
2023-02-24T21:08:24.170Z,16.47
2023-02-24T21:10:26.497Z,15.13
2023-02-24T21:12:28.668Z,18.40
2023-02-24T21:14:30.886Z,15.10
2023-02-24T21:16:35.365Z,18.67
2023-02-24T21:18:39.122Z,15.63
2023-02-24T21:20:41.273Z,16.80
2023-02-24T21:22:43.513Z,14.67
2023-02-24T21:24:45.911Z,14.90
2023-02-24T21:26:47.980Z,15.03
2023-02-24T21:28:56.843Z,13.23
2023-02-24T21:30:59.705Z,14.43
2023-02-24T21:33:01.938Z,15.20
2023-02-24T21:35:04.356Z,13.63
2023-02-24T21:37:07.404Z,12.00
2023-02-24T21:39:14.496Z,16.97
2023-02-24T21:41:19.515Z,11.73
2023-02-24T21:43:21.801Z,13.70
2023-02-24T21:45:24.015Z,12.80
2023-02-24T21:47:26.240Z,11.93
2023-02-24T21:49:28.459Z,12.63
2023-02-24T21:51:30.667Z,13.03
2023-02-24T21:53:35.443Z,12.77
2023-02-24T21:55:38.922Z,13.80
2023-02-24T21:57:44.825Z,13.63
2023-02-24T21:59:47.033Z,11.37
2023-02-24T22:01:49.405Z,12.63
2023-02-24T22:03:56.127Z,13.63
2023-02-24T22:05:58.300Z,15.10
2023-02-24T22:08:00.406Z,14.03
2023-02-24T22:10:03.423Z,10.30
2023-02-24T22:12:06.134Z,16.77
2023-02-24T22:14:10.050Z,12.57
2023-02-24T22:16:21.842Z,20.63
2023-02-24T22:18:24.259Z,14.40
2023-02-24T22:20:26.343Z,10.23
2023-02-24T22:22:28.434Z,15.97
2023-02-24T22:24:30.561Z,11.70
2023-02-24T22:26:33.083Z,18.70
2023-02-24T22:28:38.268Z,14.00
2023-02-24T22:30:40.504Z,12.23
2023-02-24T22:32:42.778Z,14.83
2023-02-24T22:34:44.961Z,9.20
2023-02-24T22:36:47.111Z,14.57
2023-02-24T22:38:49.303Z,10.37
2023-02-24T22:41:02.508Z,20.03
2023-02-24T22:43:05.125Z,20.23
2023-02-24T22:45:08.553Z,17.90
2023-02-24T22:47:10.854Z,19.77
2023-02-24T22:49:13.278Z,12.47
2023-02-24T22:51:15.507Z,14.27
2023-02-24T22:53:17.751Z,16.33
2023-02-24T22:55:20.493Z,19.33
2023-02-24T22:57:22.591Z,9.87
2023-02-24T22:59:24.779Z,17.87
2023-02-24T23:01:29.308Z,22.47
2023-02-24T23:03:31.431Z,20.63
2023-02-24T23:05:33.902Z,21.83
2023-02-24T23:07:37.388Z,15.67
2023-02-24T23:09:39.597Z,16.43
2023-02-24T23:11:41.972Z,14.03
2023-02-24T23:13:45.865Z,17.60
2023-02-24T23:15:48.961Z,16.57
2023-02-24T23:17:51.074Z,13.90
2023-02-24T23:19:54.125Z,18.07
2023-02-24T23:21:57.115Z,25.53
2023-02-24T23:24:00.173Z,17.73
2023-02-24T23:26:02.642Z,10.33
2023-02-24T23:28:05.671Z,17.77
2023-02-24T23:30:09.778Z,12.90
2023-02-24T23:32:11.977Z,12.43
2023-02-24T23:34:14.880Z,16.07
2023-02-24T23:36:17.750Z,17.53
2023-02-24T23:38:20.082Z,27.47
2023-02-24T23:40:26.141Z,21.40
2023-02-24T23:42:28.662Z,22.73
2023-02-24T23:44:30.777Z,19.07
2023-02-24T23:46:34.206Z,26.07
2023-02-24T23:48:37.259Z,13.50
2023-02-24T23:50:40.616Z,16.13
2023-02-24T23:52:42.806Z,13.97
2023-02-24T23:54:50.023Z,13.80
2023-02-24T23:56:52.208Z,9.87
2023-02-24T23:58:58.935Z,9.90
